Mackinaw City, MI

3:57 AM EST on December 28, 2014 (GMT -0500)
Mackinac Island | Change Station
CLOSE
Current Station
Airport
Location: Mackinac Island,
Elevation: 741 ft
Nearby Weather Stations

Elev 741 ft 45.87 °N, 84.64 °W | Updated 22 minutes ago

Partly Cloudy
Partly Cloudy
28 °F
Feels Like 18 °F
N
13
Wind Variable Wind from WNW
Gusts 20 mph

Today
High -- | Low -- °F
--% Chance of Precip.
Yesterday
High -- | Low -- °F
Precip. -- in
8:19 AM 5:01 PM
Waxing Crescent, 45% visible
Pressure 29.94 in
Visibility 10.0 miles
Clouds Clear
Windchill 18 °F
Dew Point 22 °F
Humidity 78%
Rainfall 0.00 in
Snow Depth Not available.
UV 0 out of 12
Pollen .10 out of 12
Air Quality Not available.
Flu Activity Not available.
METAR KMCD 280835Z AUTO 29011G17KT 10SM CLR M02/M05 A2994 RMK AO2 T10201054

More Conditions Fewer Conditions

Pressure 29.94 in
Visibility 10.0 miles
Clouds Clear
Windchill 18 °F
Dew Point 22 °F
Humidity 78%
Rainfall 0.00 in
Snow Depth Not available.
UV 0 out of 12
Pollen .10 out of 12
Air Quality Not available.
Flu Activity Not available.
METAR KMCD 280835Z AUTO 29011G17KT 10SM CLR M02/M05 A2994 RMK AO2 T10201054

More Conditions Fewer Conditions

Nowcast | as of 3:00 am EST on December 28, 2014

At 4 am...mostly cloudy. Scattered flurries. Temperature 28. West winds 10 mph. At 6 am...mostly cloudy. Scattered flurries. Temperature 28. West winds 10 mph. At 8 am...mostly cloudy. Scattered flurries. Temperature 28. West winds 11 mph. At 10 am...mostly cloudy. Scattered flurries. Temperature 28. West winds 12 mph.

×

10-Day Weather Forecast

Almanac

Astronomy

Dec. 28, 2014 Rise Set
Actual Time
Civil Twilight
Nautical Twilight
Astronomical Twilight
Moon
Length of Visible Light
Length of Day
Tomorrow will be .
, % of the Moon is Illuminated

Today's Extremes

State Highs State Lows

Community

WunderPhotos

Upload Photos

1,781,210 photos uploaded!

WunderBlogs® & News

Nearby

Air Quality

  Air Quality AQ Index Pollutant
Not available.

Snow Depth

Station Depth Elevation

Earthquake Activity

City Distance Mag. Time & Date
Minimum magnitude displayed is 2.5.

Coastal Water Temperatures

Place Temperature

Nearby Weather Stations